sensor_id;sensor_type;location;lat;lon;timestamp;pressure;altitude;pressure_sealevel;temperature;humidity
70437;BME280;57877;39.750;-104.894;2022-11-27T00:00:32;83301.39;;;6.66;23.43
70437;BME280;57877;39.750;-104.894;2022-11-27T00:02:58;83307.73;;;6.83;23.32
70437;BME280;57877;39.750;-104.894;2022-11-27T00:05:24;83307.31;;;7.16;23.07
70437;BME280;57877;39.750;-104.894;2022-11-27T00:07:50;83314.51;;;6.93;23.21
70437;BME280;57877;39.750;-104.894;2022-11-27T00:10:16;83316.59;;;6.72;23.31
70437;BME280;57877;39.750;-104.894;2022-11-27T00:12:42;83320.89;;;6.84;23.15
70437;BME280;57877;39.750;-104.894;2022-11-27T00:15:09;83318.78;;;7.04;23.09
70437;BME280;57877;39.750;-104.894;2022-11-27T00:17:34;83314.66;;;7.17;22.83
70437;BME280;57877;39.750;-104.894;2022-11-27T00:20:00;83319.29;;;7.45;22.58
70437;BME280;57877;39.750;-104.894;2022-11-27T00:22:26;83318.81;;;6.10;23.81
70437;BME280;57877;39.750;-104.894;2022-11-27T00:24:52;83320.28;;;7.23;22.83
70437;BME280;57877;39.750;-104.894;2022-11-27T00:27:18;83323.80;;;7.03;22.73
70437;BME280;57877;39.750;-104.894;2022-11-27T00:29:44;83329.41;;;7.63;22.50
70437;BME280;57877;39.750;-104.894;2022-11-27T00:32:10;83330.13;;;7.88;21.96
70437;BME280;57877;39.750;-104.894;2022-11-27T00:34:36;83332.36;;;8.41;21.77
70437;BME280;57877;39.750;-104.894;2022-11-27T00:37:02;83333.09;;;7.41;22.43
70437;BME280;57877;39.750;-104.894;2022-11-27T00:39:28;83333.23;;;7.02;22.71
70437;BME280;57877;39.750;-104.894;2022-11-27T00:41:54;83338.15;;;8.09;21.75
70437;BME280;57877;39.750;-104.894;2022-11-27T00:44:20;83340.30;;;8.50;21.29
70437;BME280;57877;39.750;-104.894;2022-11-27T00:46:46;83339.05;;;7.81;21.67
70437;BME280;57877;39.750;-104.894;2022-11-27T00:49:14;83342.57;;;8.49;21.12
70437;BME280;57877;39.750;-104.894;2022-11-27T00:51:39;83346.02;;;8.39;21.23
70437;BME280;57877;39.750;-104.894;2022-11-27T00:54:05;83342.88;;;7.72;21.98
70437;BME280;57877;39.750;-104.894;2022-11-27T00:56:33;83339.79;;;6.98;22.55
70437;BME280;57877;39.750;-104.894;2022-11-27T00:58:57;83342.33;;;8.19;21.42
70437;BME280;57877;39.750;-104.894;2022-11-27T01:01:24;83336.86;;;6.84;22.78
70437;BME280;57877;39.750;-104.894;2022-11-27T01:03:49;83342.14;;;6.76;23.04
70437;BME280;57877;39.750;-104.894;2022-11-27T01:06:16;83343.20;;;6.34;23.82
70437;BME280;57877;39.750;-104.894;2022-11-27T01:08:41;83349.17;;;5.63;24.50
70437;BME280;57877;39.750;-104.894;2022-11-27T01:11:11;83355.37;;;5.76;25.00
70437;BME280;57877;39.750;-104.894;2022-11-27T01:13:34;83362.39;;;5.85;24.97
70437;BME280;57877;39.750;-104.894;2022-11-27T01:15:59;83363.76;;;6.40;24.19
70437;BME280;57877;39.750;-104.894;2022-11-27T01:18:24;83367.71;;;7.29;23.15
70437;BME280;57877;39.750;-104.894;2022-11-27T01:20:52;83366.70;;;7.62;22.81
70437;BME280;57877;39.750;-104.894;2022-11-27T01:23:16;83367.59;;;7.07;22.95
70437;BME280;57877;39.750;-104.894;2022-11-27T01:25:42;83372.17;;;6.12;23.91
70437;BME280;57877;39.750;-104.894;2022-11-27T01:28:08;83377.35;;;7.10;23.20
70437;BME280;57877;39.750;-104.894;2022-11-27T01:30:34;83376.12;;;7.32;22.87
70437;BME280;57877;39.750;-104.894;2022-11-27T01:32:59;83378.15;;;7.59;22.61
70437;BME280;57877;39.750;-104.894;2022-11-27T01:35:25;83379.61;;;7.31;22.93
70437;BME280;57877;39.750;-104.894;2022-11-27T01:37:51;83385.48;;;6.88;23.24
70437;BME280;57877;39.750;-104.894;2022-11-27T01:40:17;83389.02;;;6.13;24.30
70437;BME280;57877;39.750;-104.894;2022-11-27T01:42:42;83395.12;;;7.15;23.38
70437;BME280;57877;39.750;-104.894;2022-11-27T01:45:09;83401.12;;;7.46;23.14
70437;BME280;57877;39.750;-104.894;2022-11-27T01:47:40;83402.68;;;7.44;23.37
70437;BME280;57877;39.750;-104.894;2022-11-27T01:50:07;83403.13;;;5.22;25.44
70437;BME280;57877;39.750;-104.894;2022-11-27T01:52:28;83402.12;;;6.74;24.14
70437;BME280;57877;39.750;-104.894;2022-11-27T01:54:55;83399.84;;;7.00;24.42
70437;BME280;57877;39.750;-104.894;2022-11-27T01:57:21;83404.99;;;7.42;24.07
70437;BME280;57877;39.750;-104.894;2022-11-27T01:59:44;83407.90;;;7.21;23.82
70437;BME280;57877;39.750;-104.894;2022-11-27T02:02:09;83412.45;;;7.10;23.90
70437;BME280;57877;39.750;-104.894;2022-11-27T02:04:35;83415.46;;;6.93;23.59
70437;BME280;57877;39.750;-104.894;2022-11-27T02:07:01;83419.46;;;6.64;24.09
70437;BME280;57877;39.750;-104.894;2022-11-27T02:09:28;83422.79;;;7.40;23.39
70437;BME280;57877;39.750;-104.894;2022-11-27T02:11:59;83424.03;;;7.79;23.24
70437;BME280;57877;39.750;-104.894;2022-11-27T02:14:22;83424.45;;;7.96;22.47
70437;BME280;57877;39.750;-104.894;2022-11-27T02:16:49;83430.71;;;8.05;22.30
70437;BME280;57877;39.750;-104.894;2022-11-27T02:19:15;83433.33;;;8.31;22.16
70437;BME280;57877;39.750;-104.894;2022-11-27T02:21:40;83437.67;;;6.95;23.16
70437;BME280;57877;39.750;-104.894;2022-11-27T02:24:20;83441.93;;;7.72;22.60
70437;BME280;57877;39.750;-104.894;2022-11-27T02:28:58;83445.10;;;8.57;21.66
70437;BME280;57877;39.750;-104.894;2022-11-27T02:31:23;83443.90;;;8.57;21.53
70437;BME280;57877;39.750;-104.894;2022-11-27T02:33:48;83444.08;;;8.67;21.53
70437;BME280;57877;39.750;-104.894;2022-11-27T02:36:16;83444.41;;;8.78;21.53
70437;BME280;57877;39.750;-104.894;2022-11-27T02:38:39;83444.16;;;8.85;21.42
70437;BME280;57877;39.750;-104.894;2022-11-27T02:41:06;83446.80;;;8.87;21.32
70437;BME280;57877;39.750;-104.894;2022-11-27T02:43:31;83446.17;;;8.77;21.25
70437;BME280;57877;39.750;-104.894;2022-11-27T02:45:53;83448.56;;;8.62;21.49
70437;BME280;57877;39.750;-104.894;2022-11-27T02:48:22;83450.30;;;8.45;22.09
70437;BME280;57877;39.750;-104.894;2022-11-27T02:50:46;83452.64;;;7.03;23.05
70437;BME280;57877;39.750;-104.894;2022-11-27T02:53:14;83457.93;;;6.40;23.99
70437;BME280;57877;39.750;-104.894;2022-11-27T02:55:38;83462.58;;;6.06;24.53
70437;BME280;57877;39.750;-104.894;2022-11-27T02:58:06;83469.08;;;6.86;23.96
70437;BME280;57877;39.750;-104.894;2022-11-27T03:00:28;83468.63;;;5.58;25.10
70437;BME280;57877;39.750;-104.894;2022-11-27T03:02:56;83473.57;;;4.09;27.14
70437;BME280;57877;39.750;-104.894;2022-11-27T03:05:21;83472.29;;;5.64;25.73
70437;BME280;57877;39.750;-104.894;2022-11-27T03:07:48;83476.34;;;4.12;27.36
70437;BME280;57877;39.750;-104.894;2022-11-27T03:10:17;83473.52;;;4.62;27.10
70437;BME280;57877;39.750;-104.894;2022-11-27T03:12:37;83473.99;;;5.13;26.62
70437;BME280;57877;39.750;-104.894;2022-11-27T03:15:03;83479.88;;;3.61;28.09
70437;BME280;57877;39.750;-104.894;2022-11-27T03:17:38;83483.30;;;4.09;27.71
70437;BME280;57877;39.750;-104.894;2022-11-27T03:19:57;83484.96;;;4.98;26.88
70437;BME280;57877;39.750;-104.894;2022-11-27T03:22:20;83489.08;;;4.97;26.59
70437;BME280;57877;39.750;-104.894;2022-11-27T03:24:46;83489.77;;;4.66;27.08
70437;BME280;57877;39.750;-104.894;2022-11-27T03:27:15;83493.53;;;4.27;27.40
70437;BME280;57877;39.750;-104.894;2022-11-27T03:29:42;83490.21;;;6.06;25.72
70437;BME280;57877;39.750;-104.894;2022-11-27T03:32:04;83486.11;;;5.92;25.38
70437;BME280;57877;39.750;-104.894;2022-11-27T03:34:29;83486.26;;;6.18;24.96
70437;BME280;57877;39.750;-104.894;2022-11-27T03:36:55;83489.76;;;6.17;25.09
70437;BME280;57877;39.750;-104.894;2022-11-27T03:39:21;83493.92;;;6.21;24.99
70437;BME280;57877;39.750;-104.894;2022-11-27T03:41:52;83501.41;;;6.21;24.93
70437;BME280;57877;39.750;-104.894;2022-11-27T03:44:19;83506.73;;;5.04;26.09
70437;BME280;57877;39.750;-104.894;2022-11-27T03:46:45;83509.03;;;5.36;26.29
70437;BME280;57877;39.750;-104.894;2022-11-27T03:49:07;83508.39;;;4.94;27.18
70437;BME280;57877;39.750;-104.894;2022-11-27T03:51:36;83512.30;;;4.40;28.36
70437;BME280;57877;39.750;-104.894;2022-11-27T03:53:59;83512.68;;;4.67;28.19
70437;BME280;57877;39.750;-104.894;2022-11-27T03:56:29;83515.12;;;3.31;30.75
70437;BME280;57877;39.750;-104.894;2022-11-27T03:58:51;83518.98;;;3.35;30.78
70437;BME280;57877;39.750;-104.894;2022-11-27T04:01:16;83524.09;;;3.61;30.94
70437;BME280;57877;39.750;-104.894;2022-11-27T04:03:39;83526.02;;;3.15;31.83
70437;BME280;57877;39.750;-104.894;2022-11-27T04:06:05;83525.76;;;3.63;31.16
70437;BME280;57877;39.750;-104.894;2022-11-27T04:08:30;83528.50;;;4.11;30.44
70437;BME280;57877;39.750;-104.894;2022-11-27T04:10:56;83525.98;;;3.71;30.80
70437;BME280;57877;39.750;-104.894;2022-11-27T04:13:21;83527.83;;;4.39;30.20
70437;BME280;57877;39.750;-104.894;2022-11-27T04:15:47;83531.23;;;4.75;29.78
70437;BME280;57877;39.750;-104.894;2022-11-27T04:18:13;83532.79;;;4.63;29.39
70437;BME280;57877;39.750;-104.894;2022-11-27T04:20:39;83534.98;;;4.97;29.02
70437;BME280;57877;39.750;-104.894;2022-11-27T04:23:05;83537.73;;;4.58;29.49
70437;BME280;57877;39.750;-104.894;2022-11-27T04:25:31;83539.00;;;4.61;29.47
70437;BME280;57877;39.750;-104.894;2022-11-27T04:27:56;83536.84;;;5.27;28.58
70437;BME280;57877;39.750;-104.894;2022-11-27T04:30:23;83539.16;;;4.66;29.18
70437;BME280;57877;39.750;-104.894;2022-11-27T04:32:48;83542.56;;;4.39;29.69
70437;BME280;57877;39.750;-104.894;2022-11-27T04:35:14;83541.18;;;4.05;30.32
70437;BME280;57877;39.750;-104.894;2022-11-27T04:37:40;83545.33;;;4.54;29.86
70437;BME280;57877;39.750;-104.894;2022-11-27T04:40:07;83541.85;;;5.29;29.09
70437;BME280;57877;39.750;-104.894;2022-11-27T04:42:31;83541.53;;;5.09;28.80
70437;BME280;57877;39.750;-104.894;2022-11-27T04:44:57;83543.05;;;4.26;30.31
70437;BME280;57877;39.750;-104.894;2022-11-27T04:47:23;83542.28;;;4.02;30.60
70437;BME280;57877;39.750;-104.894;2022-11-27T04:49:49;83541.69;;;3.68;31.01
70437;BME280;57877;39.750;-104.894;2022-11-27T04:52:14;83542.61;;;4.08;30.80
70437;BME280;57877;39.750;-104.894;2022-11-27T04:54:40;83543.38;;;4.03;30.94
70437;BME280;57877;39.750;-104.894;2022-11-27T04:57:06;83545.45;;;4.62;30.64
70437;BME280;57877;39.750;-104.894;2022-11-27T04:59:32;83548.01;;;4.41;30.55
70437;BME280;57877;39.750;-104.894;2022-11-27T05:01:58;83550.85;;;4.42;30.74
70437;BME280;57877;39.750;-104.894;2022-11-27T05:04:24;83548.72;;;4.04;31.28
70437;BME280;57877;39.750;-104.894;2022-11-27T05:09:17;83549.07;;;2.63;33.41
70437;BME280;57877;39.750;-104.894;2022-11-27T05:11:41;83545.08;;;3.84;32.46
70437;BME280;57877;39.750;-104.894;2022-11-27T05:14:07;83547.49;;;3.72;31.83
70437;BME280;57877;39.750;-104.894;2022-11-27T05:16:33;83540.38;;;3.81;32.56
70437;BME280;57877;39.750;-104.894;2022-11-27T05:18:58;83546.99;;;4.03;31.75
70437;BME280;57877;39.750;-104.894;2022-11-27T05:21:24;83549.24;;;4.52;31.71
70437;BME280;57877;39.750;-104.894;2022-11-27T05:23:50;83548.75;;;3.26;33.20
70437;BME280;57877;39.750;-104.894;2022-11-27T05:26:16;83545.06;;;2.03;34.91
70437;BME280;57877;39.750;-104.894;2022-11-27T05:28:42;83545.10;;;2.48;35.39
70437;BME280;57877;39.750;-104.894;2022-11-27T05:31:07;83547.18;;;2.51;35.15
70437;BME280;57877;39.750;-104.894;2022-11-27T05:33:33;83552.06;;;3.04;34.22
70437;BME280;57877;39.750;-104.894;2022-11-27T05:35:59;83555.72;;;1.70;36.06
70437;BME280;57877;39.750;-104.894;2022-11-27T05:38:25;83554.44;;;1.93;36.76
70437;BME280;57877;39.750;-104.894;2022-11-27T05:40:51;83548.11;;;2.77;35.16
70437;BME280;57877;39.750;-104.894;2022-11-27T05:43:16;83546.61;;;2.14;35.64
70437;BME280;57877;39.750;-104.894;2022-11-27T05:45:42;83545.27;;;3.29;34.16
70437;BME280;57877;39.750;-104.894;2022-11-27T05:48:08;83544.34;;;2.83;34.68
70437;BME280;57877;39.750;-104.894;2022-11-27T05:50:34;83543.05;;;4.33;32.89
70437;BME280;57877;39.750;-104.894;2022-11-27T05:53:00;83541.94;;;3.62;33.64
70437;BME280;57877;39.750;-104.894;2022-11-27T05:55:26;83537.43;;;2.35;35.43
70437;BME280;57877;39.750;-104.894;2022-11-27T05:57:51;83536.40;;;3.05;34.60
70437;BME280;57877;39.750;-104.894;2022-11-27T06:00:18;83534.67;;;2.80;35.39
70437;BME280;57877;39.750;-104.894;2022-11-27T06:02:43;83533.92;;;3.65;33.49
70437;BME280;57877;39.750;-104.894;2022-11-27T06:05:09;83532.88;;;3.53;33.90
70437;BME280;57877;39.750;-104.894;2022-11-27T06:07:35;83531.77;;;3.59;33.98
70437;BME280;57877;39.750;-104.894;2022-11-27T06:10:01;83535.56;;;3.92;33.19
70437;BME280;57877;39.750;-104.894;2022-11-27T06:12:27;83534.93;;;3.06;34.42
70437;BME280;57877;39.750;-104.894;2022-11-27T06:14:52;83535.07;;;2.79;34.69
70437;BME280;57877;39.750;-104.894;2022-11-27T06:17:18;83533.56;;;4.11;32.96
70437;BME280;57877;39.750;-104.894;2022-11-27T06:19:44;83531.03;;;3.80;33.54
70437;BME280;57877;39.750;-104.894;2022-11-27T06:22:10;83530.49;;;2.62;35.82
70437;BME280;57877;39.750;-104.894;2022-11-27T06:24:35;83527.33;;;3.42;34.98
70437;BME280;57877;39.750;-104.894;2022-11-27T06:27:01;83529.04;;;2.79;35.85
70437;BME280;57877;39.750;-104.894;2022-11-27T06:29:27;83528.57;;;1.97;37.49
70437;BME280;57877;39.750;-104.894;2022-11-27T06:31:53;83529.42;;;2.43;36.74
70437;BME280;57877;39.750;-104.894;2022-11-27T06:34:19;83530.04;;;3.41;35.58
70437;BME280;57877;39.750;-104.894;2022-11-27T06:36:44;83529.90;;;3.34;35.78
70437;BME280;57877;39.750;-104.894;2022-11-27T06:39:10;83527.09;;;2.53;37.80
70437;BME280;57877;39.750;-104.894;2022-11-27T06:41:36;83528.97;;;0.85;41.34
70437;BME280;57877;39.750;-104.894;2022-11-27T06:44:02;83532.57;;;0.88;41.66
70437;BME280;57877;39.750;-104.894;2022-11-27T06:46:28;83534.03;;;1.19;41.22
70437;BME280;57877;39.750;-104.894;2022-11-27T06:48:54;83535.29;;;0.32;42.93
70437;BME280;57877;39.750;-104.894;2022-11-27T06:51:21;83536.81;;;1.27;41.66
70437;BME280;57877;39.750;-104.894;2022-11-27T06:53:45;83537.18;;;2.30;39.72
70437;BME280;57877;39.750;-104.894;2022-11-27T06:56:13;83536.26;;;1.56;41.17
70437;BME280;57877;39.750;-104.894;2022-11-27T06:58:37;83533.34;;;2.74;39.02
70437;BME280;57877;39.750;-104.894;2022-11-27T07:01:05;83533.22;;;2.78;38.11
70437;BME280;57877;39.750;-104.894;2022-11-27T07:03:29;83534.00;;;3.16;37.40
70437;BME280;57877;39.750;-104.894;2022-11-27T07:05:54;83531.55;;;3.65;36.99
70437;BME280;57877;39.750;-104.894;2022-11-27T07:08:20;83533.53;;;2.44;38.42
70437;BME280;57877;39.750;-104.894;2022-11-27T07:10:46;83535.96;;;3.10;37.49
70437;BME280;57877;39.750;-104.894;2022-11-27T07:13:12;83534.77;;;2.94;37.80
70437;BME280;57877;39.750;-104.894;2022-11-27T07:15:37;83534.54;;;3.42;36.92
70437;BME280;57877;39.750;-104.894;2022-11-27T07:18:03;83534.39;;;2.80;37.87
70437;BME280;57877;39.750;-104.894;2022-11-27T07:20:29;83535.35;;;3.36;36.86
70437;BME280;57877;39.750;-104.894;2022-11-27T07:22:55;83537.12;;;3.56;36.29
70437;BME280;57877;39.750;-104.894;2022-11-27T07:25:21;83538.24;;;3.33;36.70
70437;BME280;57877;39.750;-104.894;2022-11-27T07:27:46;83539.05;;;3.52;36.63
70437;BME280;57877;39.750;-104.894;2022-11-27T07:30:13;83538.46;;;3.56;36.75
70437;BME280;57877;39.750;-104.894;2022-11-27T07:32:38;83541.43;;;3.66;36.11
70437;BME280;57877;39.750;-104.894;2022-11-27T07:35:04;83540.27;;;3.71;36.12
70437;BME280;57877;39.750;-104.894;2022-11-27T07:37:30;83536.54;;;3.85;36.29
70437;BME280;57877;39.750;-104.894;2022-11-27T07:39:55;83536.32;;;3.67;36.32
70437;BME280;57877;39.750;-104.894;2022-11-27T07:42:21;83533.65;;;3.83;36.11
70437;BME280;57877;39.750;-104.894;2022-11-27T07:44:47;83536.77;;;3.62;36.37
70437;BME280;57877;39.750;-104.894;2022-11-27T07:47:13;83537.10;;;3.91;36.02
70437;BME280;57877;39.750;-104.894;2022-11-27T07:49:39;83533.43;;;3.21;37.28
70437;BME280;57877;39.750;-104.894;2022-11-27T07:52:05;83532.29;;;3.42;37.42
70437;BME280;57877;39.750;-104.894;2022-11-27T07:54:30;83531.02;;;3.22;37.20
70437;BME280;57877;39.750;-104.894;2022-11-27T07:56:56;83529.26;;;1.78;39.33
70437;BME280;57877;39.750;-104.894;2022-11-27T07:59:22;83527.85;;;2.45;39.43
70437;BME280;57877;39.750;-104.894;2022-11-27T08:01:48;83525.87;;;2.93;38.61
70437;BME280;57877;39.750;-104.894;2022-11-27T08:04:13;83520.78;;;3.33;38.07
70437;BME280;57877;39.750;-104.894;2022-11-27T08:06:39;83520.62;;;2.69;39.23
70437;BME280;57877;39.750;-104.894;2022-11-27T08:09:05;83518.01;;;2.66;39.74
70437;BME280;57877;39.750;-104.894;2022-11-27T08:11:32;83517.22;;;2.55;39.85
70437;BME280;57877;39.750;-104.894;2022-11-27T08:13:59;83515.36;;;2.82;39.59
70437;BME280;57877;39.750;-104.894;2022-11-27T08:16:23;83513.01;;;2.29;39.82
70437;BME280;57877;39.750;-104.894;2022-11-27T08:18:48;83513.01;;;2.86;39.35
70437;BME280;57877;39.750;-104.894;2022-11-27T08:21:14;83512.73;;;2.52;39.88
70437;BME280;57877;39.750;-104.894;2022-11-27T08:23:40;83513.37;;;3.40;38.93
70437;BME280;57877;39.750;-104.894;2022-11-27T08:26:07;83511.10;;;3.54;38.16
70437;BME280;57877;39.750;-104.894;2022-11-27T08:28:32;83512.40;;;3.18;38.46
70437;BME280;57877;39.750;-104.894;2022-11-27T08:30:58;83514.26;;;3.27;38.27
70437;BME280;57877;39.750;-104.894;2022-11-27T08:33:24;83513.67;;;3.49;37.92
70437;BME280;57877;39.750;-104.894;2022-11-27T08:35:49;83514.46;;;3.04;38.85
70437;BME280;57877;39.750;-104.894;2022-11-27T08:38:15;83509.25;;;2.26;39.93
70437;BME280;57877;39.750;-104.894;2022-11-27T08:40:41;83509.29;;;2.92;39.27
70437;BME280;57877;39.750;-104.894;2022-11-27T08:43:07;83507.45;;;2.54;39.53
70437;BME280;57877;39.750;-104.894;2022-11-27T08:45:32;83512.14;;;3.21;39.21
70437;BME280;57877;39.750;-104.894;2022-11-27T08:47:58;83510.54;;;2.23;40.39
70437;BME280;57877;39.750;-104.894;2022-11-27T08:50:24;83514.30;;;3.21;38.95
70437;BME280;57877;39.750;-104.894;2022-11-27T08:52:50;83514.28;;;3.75;38.10
70437;BME280;57877;39.750;-104.894;2022-11-27T08:55:16;83511.39;;;3.60;37.92
70437;BME280;57877;39.750;-104.894;2022-11-27T08:57:41;83512.23;;;3.61;37.20
70437;BME280;57877;39.750;-104.894;2022-11-27T09:00:08;83512.61;;;3.54;36.56
70437;BME280;57877;39.750;-104.894;2022-11-27T09:02:33;83514.09;;;4.26;35.99
70437;BME280;57877;39.750;-104.894;2022-11-27T09:04:59;83512.02;;;3.90;34.82
70437;BME280;57877;39.750;-104.894;2022-11-27T09:07:25;83514.62;;;4.12;34.30
70437;BME280;57877;39.750;-104.894;2022-11-27T09:09:50;83513.98;;;4.59;33.71
70437;BME280;57877;39.750;-104.894;2022-11-27T09:12:16;83513.49;;;3.82;33.25
70437;BME280;57877;39.750;-104.894;2022-11-27T09:14:43;83518.53;;;4.19;32.91
70437;BME280;57877;39.750;-104.894;2022-11-27T09:17:07;83516.76;;;3.94;32.92
70437;BME280;57877;39.750;-104.894;2022-11-27T09:19:32;83517.50;;;3.95;32.77
70437;BME280;57877;39.750;-104.894;2022-11-27T09:21:57;83516.89;;;4.07;32.56
70437;BME280;57877;39.750;-104.894;2022-11-27T09:24:23;83518.80;;;4.11;32.65
70437;BME280;57877;39.750;-104.894;2022-11-27T09:26:47;83518.79;;;4.34;32.38
70437;BME280;57877;39.750;-104.894;2022-11-27T09:29:13;83518.15;;;4.14;32.54
70437;BME280;57877;39.750;-104.894;2022-11-27T09:31:39;83518.92;;;4.44;32.21
70437;BME280;57877;39.750;-104.894;2022-11-27T09:34:04;83519.16;;;4.25;32.33
70437;BME280;57877;39.750;-104.894;2022-11-27T09:36:29;83517.58;;;4.13;32.39
70437;BME280;57877;39.750;-104.894;2022-11-27T09:38:54;83516.33;;;3.61;32.92
70437;BME280;57877;39.750;-104.894;2022-11-27T09:43:48;83518.28;;;3.65;33.05
70437;BME280;57877;39.750;-104.894;2022-11-27T09:46:23;83518.20;;;3.64;33.45
70437;BME280;57877;39.750;-104.894;2022-11-27T09:48:36;83515.50;;;3.17;34.45
70437;BME280;57877;39.750;-104.894;2022-11-27T09:51:02;83515.69;;;3.65;33.83
70437;BME280;57877;39.750;-104.894;2022-11-27T09:53:30;83511.18;;;3.57;33.96
70437;BME280;57877;39.750;-104.894;2022-11-27T09:55:53;83508.84;;;3.40;34.21
70437;BME280;57877;39.750;-104.894;2022-11-27T09:58:18;83509.91;;;3.58;33.96
70437;BME280;57877;39.750;-104.894;2022-11-27T10:00:40;83508.17;;;3.80;33.81
70437;BME280;57877;39.750;-104.894;2022-11-27T10:03:09;83506.14;;;3.80;33.77
70437;BME280;57877;39.750;-104.894;2022-11-27T10:05:34;83507.74;;;3.87;33.62
70437;BME280;57877;39.750;-104.894;2022-11-27T10:08:07;83508.56;;;3.90;33.69
70437;BME280;57877;39.750;-104.894;2022-11-27T10:10:30;83505.86;;;3.51;34.22
70437;BME280;57877;39.750;-104.894;2022-11-27T10:12:51;83505.36;;;3.76;33.69
70437;BME280;57877;39.750;-104.894;2022-11-27T10:15:14;83502.88;;;3.07;34.32
70437;BME280;57877;39.750;-104.894;2022-11-27T10:17:39;83502.55;;;3.49;34.23
70437;BME280;57877;39.750;-104.894;2022-11-27T10:20:10;83501.19;;;3.44;34.42
70437;BME280;57877;39.750;-104.894;2022-11-27T10:22:28;83500.75;;;3.27;34.26
70437;BME280;57877;39.750;-104.894;2022-11-27T10:25:01;83498.68;;;3.48;34.00
70437;BME280;57877;39.750;-104.894;2022-11-27T10:27:21;83496.40;;;3.44;34.33
70437;BME280;57877;39.750;-104.894;2022-11-27T10:29:44;83493.52;;;3.61;34.65
70437;BME280;57877;39.750;-104.894;2022-11-27T10:32:12;83490.99;;;3.17;34.65
70437;BME280;57877;39.750;-104.894;2022-11-27T10:34:38;83489.11;;;3.51;34.29
70437;BME280;57877;39.750;-104.894;2022-11-27T10:37:01;83485.39;;;3.41;34.62
70437;BME280;57877;39.750;-104.894;2022-11-27T10:39:31;83480.84;;;3.57;33.97
70437;BME280;57877;39.750;-104.894;2022-11-27T10:41:55;83481.76;;;4.02;33.78
70437;BME280;57877;39.750;-104.894;2022-11-27T10:44:27;83479.97;;;3.48;34.46
70437;BME280;57877;39.750;-104.894;2022-11-27T10:46:43;83477.72;;;3.62;34.37
70437;BME280;57877;39.750;-104.894;2022-11-27T10:49:08;83474.96;;;3.68;34.00
70437;BME280;57877;39.750;-104.894;2022-11-27T10:51:35;83473.98;;;3.40;34.03
70437;BME280;57877;39.750;-104.894;2022-11-27T10:53:59;83475.29;;;2.63;35.25
70437;BME280;57877;39.750;-104.894;2022-11-27T10:58:53;83477.86;;;2.43;36.58
70437;BME280;57877;39.750;-104.894;2022-11-27T11:01:17;83477.50;;;2.78;36.08
70437;BME280;57877;39.750;-104.894;2022-11-27T11:03:40;83477.81;;;2.62;36.03
70437;BME280;57877;39.750;-104.894;2022-11-27T11:06:08;83474.18;;;2.77;35.87
70437;BME280;57877;39.750;-104.894;2022-11-27T11:08:31;83467.45;;;2.24;37.14
70437;BME280;57877;39.750;-104.894;2022-11-27T11:11:00;83466.51;;;2.59;36.37
70437;BME280;57877;39.750;-104.894;2022-11-27T11:13:22;83464.46;;;1.88;38.19
70437;BME280;57877;39.750;-104.894;2022-11-27T11:15:52;83465.99;;;2.47;37.44
70437;BME280;57877;39.750;-104.894;2022-11-27T11:18:15;83464.53;;;2.51;37.04
70437;BME280;57877;39.750;-104.894;2022-11-27T11:20:35;83459.57;;;2.75;37.12
70437;BME280;57877;39.750;-104.894;2022-11-27T11:23:00;83461.75;;;2.51;36.55
70437;BME280;57877;39.750;-104.894;2022-11-27T11:25:25;83462.53;;;2.54;36.76
70437;BME280;57877;39.750;-104.894;2022-11-27T11:27:51;83465.25;;;2.56;36.70
70437;BME280;57877;39.750;-104.894;2022-11-27T11:30:21;83470.32;;;2.72;36.61
70437;BME280;57877;39.750;-104.894;2022-11-27T11:32:40;83469.68;;;3.02;36.12
70437;BME280;57877;39.750;-104.894;2022-11-27T11:35:08;83471.37;;;2.72;36.31
70437;BME280;57877;39.750;-104.894;2022-11-27T11:37:33;83470.31;;;2.43;36.64
70437;BME280;57877;39.750;-104.894;2022-11-27T11:39:58;83468.38;;;2.76;36.37
70437;BME280;57877;39.750;-104.894;2022-11-27T11:42:23;83468.06;;;2.86;36.02
70437;BME280;57877;39.750;-104.894;2022-11-27T11:44:50;83467.18;;;3.04;35.87
70437;BME280;57877;39.750;-104.894;2022-11-27T11:47:17;83466.79;;;3.30;35.53
70437;BME280;57877;39.750;-104.894;2022-11-27T11:49:36;83467.14;;;3.12;35.54
70437;BME280;57877;39.750;-104.894;2022-11-27T11:52:14;83469.54;;;3.13;35.52
70437;BME280;57877;39.750;-104.894;2022-11-27T11:54:38;83472.14;;;3.00;35.43
70437;BME280;57877;39.750;-104.894;2022-11-27T11:56:52;83471.02;;;3.16;35.82
70437;BME280;57877;39.750;-104.894;2022-11-27T11:59:24;83474.15;;;3.22;35.48
70437;BME280;57877;39.750;-104.894;2022-11-27T12:01:51;83476.28;;;2.57;36.18
70437;BME280;57877;39.750;-104.894;2022-11-27T12:04:20;83473.25;;;1.65;37.49
70437;BME280;57877;39.750;-104.894;2022-11-27T12:06:41;83473.15;;;2.11;37.30
70437;BME280;57877;39.750;-104.894;2022-11-27T12:09:07;83476.69;;;2.62;36.25
70437;BME280;57877;39.750;-104.894;2022-11-27T12:11:28;83468.67;;;2.16;37.94
70437;BME280;57877;39.750;-104.894;2022-11-27T12:13:59;83472.26;;;2.16;37.24
70437;BME280;57877;39.750;-104.894;2022-11-27T12:16:18;83473.61;;;1.40;38.22
70437;BME280;57877;39.750;-104.894;2022-11-27T12:18:49;83478.41;;;1.82;38.94
70437;BME280;57877;39.750;-104.894;2022-11-27T12:21:11;83479.03;;;1.65;38.99
70437;BME280;57877;39.750;-104.894;2022-11-27T12:23:40;83472.98;;;2.17;38.31
70437;BME280;57877;39.750;-104.894;2022-11-27T12:26:03;83473.45;;;2.37;38.02
70437;BME280;57877;39.750;-104.894;2022-11-27T12:28:31;83473.18;;;2.54;37.43
70437;BME280;57877;39.750;-104.894;2022-11-27T12:30:49;83472.49;;;2.83;36.82
70437;BME280;57877;39.750;-104.894;2022-11-27T12:33:28;83469.88;;;2.80;36.69
70437;BME280;57877;39.750;-104.894;2022-11-27T12:35:42;83470.68;;;2.68;36.57
70437;BME280;57877;39.750;-104.894;2022-11-27T12:38:14;83471.48;;;2.60;36.73
70437;BME280;57877;39.750;-104.894;2022-11-27T12:40:38;83470.86;;;3.13;36.52